Historyczne dane pomiarowe

Dodano dane terminowe – wersja testowa.

Dane z okresu 1951-2019

Wersja bazy: 1.34 [2019-03-16, lista zmian], aktualizacja planowana na 2019-04-15

Dane meteo z obszaru Polski uzyskane na podstawie danych udostępnionych przez Instytut Meteorologii i Gospodarki Wodnej – Państwowy Instytut Badawczy.

 

Wybierz Datę:    

       

TemperaturaWilgotnośćWiatrCiśnienieOpadyŚniegCzas trwania zjawisk
 Stacja t tx tn tng RH VA  wxwx mslp ppp RRR   cm mm wxwxwxwxwxwxwx
1987-08-14 14.7 18.9 9.1 6.2 73.3- 5.7 4.3---- 9.4------------
1987-08-13 11.8 17.4 6.5 5.4 83.0- 5.3 1.0---- 0.0------------
1987-08-12 11.9 17.9 4.2 2.6 69.5- 3.0 1.7---- 2.1------------
1987-08-11 11.5 15.4 9.7 7.4 73.8- 4.7 4.0---- 0.1------------
1987-08-10 12.4 18.1 9.6 7.8 83.5- 6.7 2.7---- 0.3------------
1987-08-09 14.3 22.1 8.2 5.9 77.3- 4.7 2.7---- 9.2------------
1987-08-08 13.1 18.6 6.6 4.1 69.3- 4.0 2.3---- 0.0------------
1987-08-07 9.7 16.1 3.8 0.8 74.0- 4.3 2.0---- 0.0------------
1987-08-06 9.2 14.2 5.6 3.1 77.0- 4.3 3.3---- 0.7------------
1987-08-05 10.6 15.3 6.2 3.8 74.0- 4.3 1.7---- 0.3------------
1987-08-04 13.6 16.8 11.9 11.6 75.3- 3.7 1.3---- 0.0------------
1987-08-03 13.2 18.6 8.8 6.7 76.3- 4.7 1.7---- 5.8------------
1987-08-02 12.0 15.3 9.7 8.7 75.3- 7.0 3.0---- 2.0------------
1987-08-01 13.8 16.9 12.0 10.2 80.0- 6.7 2.3---- 8.1------------
1987-07-31 14.2 20.0 11.0 11.6 80.8- 5.7 3.0---- 0.6------------
1987-07-30 16.8 22.9 10.2 7.8 65.5- 5.0 3.0---- 1.0------------
1987-07-29 12.4 16.2 7.7 5.0 77.3- 5.7 2.0---- 0.0------------
1987-07-28 11.7 13.5 9.3 9.8 80.3- 7.7 3.3---- 0.4------------
1987-07-27 10.6 15.2 7.0 5.6 75.8- 5.7 3.7---- 10.8------------
1987-07-26 11.3 15.8 9.4 9.3 75.3- 6.3 3.0---- 0.4------------
1987-07-25 15.3 20.5 12.8 11.2 80.0- 7.0 2.0---- 2.8------------
1987-07-24 18.0 22.7 12.6 10.8 78.5- 4.7 0.7---- 0.3------------
1987-07-23 18.1 24.2 11.0 9.3 75.8- 4.7 0.7---- 0.0------------
1987-07-22 16.1 22.3 10.1 8.4 81.8- 3.3 1.0---- 0.0------------
1987-07-21 13.5 19.3 10.5 9.1 89.3- 7.7 1.0---- 1.1------------
1987-07-20 16.3 21.3 13.7 13.5 83.5- 5.0 1.0---- 0.1------------
1987-07-19 17.5 20.9 14.3 14.0 83.0- 6.7 1.0---- 19.5------------
1987-07-18 18.7 22.7 15.9 13.3 79.0- 6.0 1.3---- 0.1------------
1987-07-17 21.7 28.5 15.8 13.7 70.5- 3.3 1.7---- 0.0------------
1987-07-16 19.6 26.7 12.5 10.9 80.3- 5.7 2.0---- 8.8------------
1987-07-15 16.5 22.2 6.8 5.3 70.0- 2.0 2.7---- 0.0------------
1987-07-14 14.8 19.5 6.0 4.9 66.8- 0.0 1.7---- 0.0------------
1987-07-13 14.9 18.9 10.4 8.0 71.0- 3.7 3.0---- 0.0------------
1987-07-12 20.7 25.7 17.2 16.7 60.3- 5.0 3.3---- 8.1------------
1987-07-11 15.7 22.6 7.2 5.3 63.8- 5.0 3.3---- 0.0------------
1987-07-10 12.5 17.2 8.5 5.4 65.8- 5.3 2.7---- 0.0------------
1987-07-09 14.9 18.1 13.0 14.0 83.8- 6.7 1.7---- 0.6------------
1987-07-08 19.2 23.6 16.0 11.7 77.8- 6.0 0.7---- 36.2------------
1987-07-07 19.1 25.3 8.9 6.3 54.8- 0.3 2.7---- 0.0------------
1987-07-06 15.8 21.8 6.6 5.4 65.0- 0.7 2.0---- 0.0------------
1987-07-05 13.8 18.6 7.8 6.0 69.5- 3.3 1.7---- 0.0------------
1987-07-04 15.1 19.6 10.5 9.5 79.3- 6.7 0.7---- 0.0------------
1987-07-03 16.7 22.7 8.6 8.1 71.5- 3.3 1.7---- 0.0------------
1987-07-02 17.2 20.1 13.6 13.2 79.0- 5.3 1.3---- 0.0------------
1987-07-01 23.4 29.3 19.0 17.4 71.3- 3.7 0.7---- 4.0------------
1987-06-30 22.5 28.1 14.9 12.6 65.0- 0.0 2.0---- 0.0------------
1987-06-29 20.5 25.2 14.6 11.9 75.3- 1.7 1.0---- 0.0------------
1987-06-28 17.8 23.3 12.2 9.3 74.3- 4.7 3.3---- 0.0------------
1987-06-27 15.7 19.5 13.3 11.8 83.8- 7.0 0.3---- 0.2------------
1987-06-26 14.8 22.2 6.8 5.2 72.5- 6.3 2.3---- 0.5------------
1987-06-25 12.3 16.3 10.2 9.1 82.0- 7.0 2.3---- 0.2------------
1987-06-24 13.1 17.6 9.8 7.6 78.8- 5.0 1.7---- 9.2------------
1987-06-23 13.3 17.2 8.5 6.8 74.8- 6.0 2.3---- 0.2------------
1987-06-22 11.4 15.3 9.9 9.6 84.8- 8.0 2.0---- 0.1------------
1987-06-21 14.1 18.2 11.5 11.0 83.5- 7.7 1.3---- 0.5------------
1987-06-20 15.3 20.1 9.3 6.2 63.0- 4.7 1.7---- 0.4------------
1987-06-19 11.0 15.9 5.3 3.7 68.0- 5.0 3.0---- 0.0------------
1987-06-18 8.4 12.5 4.9 2.4 77.8- 8.0 4.7---- 1.2------------
1987-06-17 10.5 14.9 7.6 5.8 60.8- 6.0 3.0---- 1.7------------
1987-06-16 9.8 19.0 7.1 7.8 81.3- 7.0 6.3---- 0.1------------
327.7 ms

 

Źródłem pochodzenia danych jest Instytut Meteorologii i Gospodarki Wodnej – Państwowy Instytut Badawczy. Dane Instytutu Meteorologii i Gospodarki Wodnej – Państwowego Instytutu Badawczego zostały przetworzone.

Dane źródłowe można odnaleźć na stronie https://dane.imgw.pl